Time;durP1;ratioP1;P1;durP2;ratioP2;P2;SDS_P1;SDS_P2;PMS_P1;PMS_P2;Temp;Humidity;BMP_temperature;BMP_pressure;BME280_temperature;BME280_humidity;BME280_pressure;Samples;Min_cycle;Max_cycle;Signal;HPM_P1;HPM_P2
2022/03/13 00:00:49;;;;;;;2.47;2.30;;;;;;;;;;5152214;27;20216;-69
2022/03/13 00:03:37;;;;;;;2.67;2.47;;;;;;;;;;5157632;27;20211;-68
2022/03/13 00:06:33;;;;;;;2.60;2.40;;;;;;;;;;5158814;27;20204;-69
2022/03/13 00:09:22;;;;;;;2.80;2.60;;;;;;;;;;5159984;27;20308;-69
2022/03/13 00:12:10;;;;;;;2.70;2.50;;;;;;;;;;5154371;27;20202;-69
2022/03/13 00:15:02;;;;;;;2.50;2.30;;;;;;;;;;5155075;27;20208;-68
2022/03/13 00:17:49;;;;;;;2.63;2.43;;;;;;;;;;5151948;27;20219;-68
2022/03/13 00:20:38;;;;;;;2.63;2.43;;;;;;;;;;5156150;27;20235;-69
2022/03/13 00:23:25;;;;;;;2.17;2.07;;;;;;;;;;5146770;27;20208;-68
2022/03/13 00:26:15;;;;;;;2.30;2.10;;;;;;;;;;5152638;27;20213;-68
2022/03/13 00:29:01;;;;;;;2.60;2.40;;;;;;;;;;5159952;27;20205;-68
2022/03/13 00:31:48;;;;;;;2.73;2.53;;;;;;;;;;5161328;27;20204;-68
2022/03/13 00:34:36;;;;;;;2.50;2.40;;;;;;;;;;5158791;27;20212;-68
2022/03/13 00:37:24;;;;;;;2.90;2.70;;;;;;;;;;5145250;27;20279;-68
2022/03/13 00:40:13;;;;;;;2.90;2.70;;;;;;;;;;5157821;27;20240;-68
2022/03/13 00:43:00;;;;;;;2.97;2.77;;;;;;;;;;5153014;27;20232;-67
2022/03/13 00:45:47;;;;;;;2.57;2.47;;;;;;;;;;5159301;27;20250;-68
2022/03/13 00:48:34;;;;;;;2.90;2.70;;;;;;;;;;5162887;27;20696;-68
2022/03/13 00:51:21;;;;;;;3.03;2.83;;;;;;;;;;5151926;27;20200;-68
2022/03/13 00:54:09;;;;;;;2.90;2.70;;;;;;;;;;5151238;27;20696;-68
2022/03/13 00:56:56;;;;;;;2.83;2.63;;;;;;;;;;5143196;27;20201;-68
2022/03/13 00:59:43;;;;;;;3.63;3.10;;;;;;;;;;5158190;27;20309;-68
2022/03/13 01:02:30;;;;;;;3.10;2.90;;;;;;;;;;5156792;27;20300;-67
2022/03/13 01:05:23;;;;;;;2.90;2.70;;;;;;;;;;5150911;27;20285;-67
2022/03/13 01:08:10;;;;;;;2.80;2.60;;;;;;;;;;5154923;27;20206;-67
2022/03/13 01:11:00;;;;;;;3.27;3.07;;;;;;;;;;5156448;27;20546;-67
2022/03/13 01:13:48;;;;;;;3.33;3.03;;;;;;;;;;5148550;27;20209;-67
2022/03/13 01:16:37;;;;;;;3.10;2.90;;;;;;;;;;5151648;27;20283;-67
2022/03/13 01:19:24;;;;;;;2.90;2.70;;;;;;;;;;5154347;27;20312;-67
2022/03/13 01:22:12;;;;;;;3.03;2.83;;;;;;;;;;5160428;27;20298;-67
2022/03/13 01:24:59;;;;;;;2.80;2.60;;;;;;;;;;5153506;27;20224;-67
2022/03/13 01:27:47;;;;;;;3.23;3.03;;;;;;;;;;5157842;27;20223;-67
2022/03/13 01:30:34;;;;;;;2.80;2.60;;;;;;;;;;5157618;27;20255;-68
2022/03/13 01:33:21;;;;;;;3.00;2.80;;;;;;;;;;5158178;27;20212;-66
2022/03/13 01:36:08;;;;;;;2.87;2.67;;;;;;;;;;5142522;27;20212;-67
2022/03/13 01:38:57;;;;;;;2.97;2.77;;;;;;;;;;5159003;27;20699;-67
2022/03/13 01:41:44;;;;;;;2.70;2.60;;;;;;;;;;5159106;27;20224;-67
2022/03/13 01:44:32;;;;;;;3.30;3.00;;;;;;;;;;5157651;27;20334;-67
2022/03/13 01:47:20;;;;;;;3.03;2.80;;;;;;;;;;5164729;27;20558;-67
2022/03/13 01:50:09;;;;;;;3.07;2.77;;;;;;;;;;5157958;27;20219;-67
2022/03/13 01:52:56;;;;;;;3.00;2.80;;;;;;;;;;5157069;27;20603;-68
2022/03/13 01:55:43;;;;;;;2.90;2.70;;;;;;;;;;5154020;27;20261;-67
2022/03/13 01:58:30;;;;;;;3.07;2.77;;;;;;;;;;5160173;27;20288;-68
2022/03/13 02:01:19;;;;;;;2.90;2.70;;;;;;;;;;5161279;27;20217;-72
2022/03/13 02:04:06;;;;;;;2.80;2.60;;;;;;;;;;5154422;27;20291;-72
2022/03/13 02:06:56;;;;;;;3.30;3.07;;;;;;;;;;5159171;27;20673;-71
2022/03/13 02:09:43;;;;;;;3.33;3.03;;;;;;;;;;5155271;27;20213;-72
2022/03/13 02:12:29;;;;;;;2.97;2.77;;;;;;;;;;5160715;27;20209;-72
2022/03/13 02:15:17;;;;;;;3.10;2.90;;;;;;;;;;5149860;27;20572;-72
2022/03/13 02:18:06;;;;;;;3.00;2.83;;;;;;;;;;5156470;27;20686;-74
2022/03/13 02:20:53;;;;;;;3.20;2.97;;;;;;;;;;5159704;27;20282;-72
2022/03/13 02:23:42;;;;;;;3.13;2.93;;;;;;;;;;5165235;27;20336;-72
2022/03/13 02:26:33;;;;;;;2.97;2.77;;;;;;;;;;5153996;27;20303;-72
2022/03/13 02:29:21;;;;;;;3.00;2.80;;;;;;;;;;5152148;27;20264;-72
2022/03/13 02:32:08;;;;;;;2.87;2.67;;;;;;;;;;5156236;27;20295;-72
2022/03/13 02:34:56;;;;;;;3.40;3.10;;;;;;;;;;5159102;27;20736;-72
2022/03/13 02:37:43;;;;;;;3.00;2.80;;;;;;;;;;5157496;27;20204;-72
2022/03/13 02:40:31;;;;;;;2.43;2.33;;;;;;;;;;5160637;27;20632;-72
2022/03/13 02:43:18;;;;;;;3.20;3.00;;;;;;;;;;5160356;27;20237;-72
2022/03/13 02:46:18;;;;;;;3.07;2.83;;;;;;;;;;5160607;27;20331;-72
2022/03/13 02:49:05;;;;;;;3.20;3.00;;;;;;;;;;5149827;27;20196;-72
2022/03/13 02:51:55;;;;;;;3.20;3.00;;;;;;;;;;5157919;27;20213;-72
2022/03/13 02:54:42;;;;;;;2.90;2.70;;;;;;;;;;5160175;27;20618;-72
2022/03/13 02:57:30;;;;;;;3.17;2.97;;;;;;;;;;5156461;27;20208;-72
2022/03/13 03:00:18;;;;;;;3.03;2.83;;;;;;;;;;5157844;27;20225;-72
2022/03/13 03:03:05;;;;;;;3.03;2.80;;;;;;;;;;5164107;27;20200;-72
2022/03/13 03:05:52;;;;;;;3.00;2.80;;;;;;;;;;5160129;27;20737;-72
2022/03/13 03:08:39;;;;;;;3.10;2.90;;;;;;;;;;5160459;27;20272;-72
2022/03/13 03:11:26;;;;;;;3.27;2.97;;;;;;;;;;5153738;27;20283;-72
2022/03/13 03:14:16;;;;;;;3.17;2.97;;;;;;;;;;5153759;27;20231;-72
2022/03/13 03:17:04;;;;;;;3.27;3.07;;;;;;;;;;5154878;27;20262;-72
2022/03/13 03:19:51;;;;;;;3.40;3.10;;;;;;;;;;5164805;27;20783;-72
2022/03/13 03:22:38;;;;;;;3.30;3.00;;;;;;;;;;5153275;27;20217;-72
2022/03/13 03:25:28;;;;;;;3.00;2.80;;;;;;;;;;5166641;27;20576;-72
2022/03/13 03:28:17;;;;;;;3.10;2.90;;;;;;;;;;5149086;27;20286;-72
2022/03/13 03:31:05;;;;;;;3.23;3.03;;;;;;;;;;5156493;27;20546;-72
2022/03/13 03:33:52;;;;;;;3.30;3.10;;;;;;;;;;5154174;27;20288;-72
2022/03/13 03:36:44;;;;;;;3.23;2.80;;;;;;;;;;5160027;27;20201;-72
2022/03/13 03:39:33;;;;;;;3.17;2.97;;;;;;;;;;5160210;27;20210;-71
2022/03/13 03:42:20;;;;;;;2.80;2.60;;;;;;;;;;5158119;27;20311;-72
2022/03/13 03:45:09;;;;;;;3.10;2.90;;;;;;;;;;5153718;27;20204;-71
2022/03/13 03:47:57;;;;;;;2.80;2.60;;;;;;;;;;5148852;27;20205;-72
2022/03/13 03:50:44;;;;;;;2.83;2.63;;;;;;;;;;5159860;27;20210;-72
2022/03/13 03:53:31;;;;;;;3.30;3.10;;;;;;;;;;5157705;27;20351;-72
2022/03/13 03:56:18;;;;;;;3.03;2.80;;;;;;;;;;5150223;27;20221;-72
2022/03/13 03:59:05;;;;;;;3.10;2.90;;;;;;;;;;5155295;27;20288;-73
2022/03/13 04:01:52;;;;;;;3.10;2.90;;;;;;;;;;5152098;27;20224;-72
2022/03/13 04:04:41;;;;;;;3.20;2.90;;;;;;;;;;5163337;27;20197;-72
2022/03/13 04:07:28;;;;;;;3.23;2.97;;;;;;;;;;5168871;27;20217;-72
2022/03/13 04:10:15;;;;;;;3.13;2.93;;;;;;;;;;5156112;27;20251;-72
2022/03/13 04:13:02;;;;;;;3.20;3.00;;;;;;;;;;5155174;27;20291;-72
2022/03/13 04:15:49;;;;;;;2.97;2.77;;;;;;;;;;5158885;27;20201;-72
2022/03/13 04:18:37;;;;;;;3.10;2.90;;;;;;;;;;5153217;27;20209;-72
2022/03/13 04:21:25;;;;;;;3.23;3.03;;;;;;;;;;5156166;27;20232;-72
2022/03/13 04:24:13;;;;;;;3.10;2.90;;;;;;;;;;5153013;27;20270;-72
2022/03/13 04:27:00;;;;;;;3.30;3.10;;;;;;;;;;5155439;27;20209;-72
2022/03/13 04:29:47;;;;;;;3.30;3.00;;;;;;;;;;5156066;27;20351;-71
2022/03/13 04:32:34;;;;;;;3.30;3.10;;;;;;;;;;5162331;27;20207;-72
2022/03/13 04:35:21;;;;;;;3.20;3.00;;;;;;;;;;5157819;27;20249;-72
2022/03/13 04:38:09;;;;;;;2.73;2.57;;;;;;;;;;5163678;27;20332;-72
2022/03/13 04:40:57;;;;;;;3.30;3.10;;;;;;;;;;5143889;27;20305;-72
2022/03/13 04:43:44;;;;;;;3.20;3.00;;;;;;;;;;5143580;27;20816;-72
2022/03/13 04:46:31;;;;;;;3.10;2.90;;;;;;;;;;5163487;27;20296;-72
2022/03/13 04:49:18;;;;;;;3.00;2.80;;;;;;;;;;5152878;27;20200;-72
2022/03/13 04:52:06;;;;;;;2.97;2.77;;;;;;;;;;5156377;27;20642;-72
2022/03/13 04:54:54;;;;;;;3.13;2.87;;;;;;;;;;5148845;27;20291;-72
2022/03/13 04:57:41;;;;;;;3.63;3.33;;;;;;;;;;5153225;27;20204;-72
2022/03/13 05:00:28;;;;;;;3.10;2.90;;;;;;;;;;5149017;27;20334;-71
2022/03/13 05:03:15;;;;;;;3.60;3.30;;;;;;;;;;5164635;27;20204;-72
2022/03/13 05:06:03;;;;;;;3.43;3.13;;;;;;;;;;5148870;27;20574;-72
2022/03/13 05:08:50;;;;;;;3.40;3.10;;;;;;;;;;5152706;27;20577;-72
2022/03/13 05:11:39;;;;;;;3.30;3.10;;;;;;;;;;5163156;27;20814;-72
2022/03/13 05:14:26;;;;;;;3.47;3.17;;;;;;;;;;5148602;27;20865;-72
2022/03/13 05:17:13;;;;;;;3.07;2.87;;;;;;;;;;5154374;27;20265;-72
2022/03/13 05:20:00;;;;;;;3.20;3.00;;;;;;;;;;5152053;27;20664;-71
2022/03/13 05:22:47;;;;;;;3.23;3.03;;;;;;;;;;5145083;27;20295;-71
2022/03/13 05:25:35;;;;;;;3.40;3.20;;;;;;;;;;5155940;27;20201;-71
2022/03/13 05:28:23;;;;;;;3.30;3.10;;;;;;;;;;5153041;27;20289;-68
2022/03/13 05:31:10;;;;;;;3.00;2.80;;;;;;;;;;5159822;27;20209;-68
2022/03/13 05:33:57;;;;;;;3.70;3.20;;;;;;;;;;5152973;27;20240;-68
2022/03/13 05:36:44;;;;;;;2.97;2.80;;;;;;;;;;5152993;27;20285;-68
2022/03/13 05:39:31;;;;;;;3.33;3.10;;;;;;;;;;5152958;27;20277;-68
2022/03/13 05:42:19;;;;;;;3.43;3.13;;;;;;;;;;5149864;27;20329;-68
2022/03/13 05:45:10;;;;;;;3.20;3.00;;;;;;;;;;5156574;27;20198;-68
2022/03/13 05:47:59;;;;;;;3.10;2.80;;;;;;;;;;5159375;27;20666;-68
2022/03/13 05:50:47;;;;;;;3.17;2.97;;;;;;;;;;5147423;27;20206;-68
2022/03/13 05:53:34;;;;;;;3.53;3.23;;;;;;;;;;5152543;27;20282;-67
2022/03/13 05:56:21;;;;;;;3.40;3.20;;;;;;;;;;5149212;27;20333;-68
2022/03/13 05:59:10;;;;;;;3.33;3.13;;;;;;;;;;5153728;27;20725;-68
2022/03/13 06:02:01;;;;;;;2.90;2.70;;;;;;;;;;5151642;27;20229;-68
2022/03/13 06:04:48;;;;;;;3.17;2.97;;;;;;;;;;5153747;27;20284;-70
2022/03/13 06:07:35;;;;;;;3.23;3.03;;;;;;;;;;5158809;27;20246;-68
2022/03/13 06:10:24;;;;;;;3.30;3.10;;;;;;;;;;5157650;27;20214;-69
2022/03/13 06:13:10;;;;;;;3.07;2.87;;;;;;;;;;5150623;27;20553;-69
2022/03/13 06:15:58;;;;;;;3.30;3.10;;;;;;;;;;5155633;27;20265;-68
2022/03/13 06:18:46;;;;;;;3.70;3.40;;;;;;;;;;5162258;27;20206;-68
2022/03/13 06:21:33;;;;;;;3.47;3.27;;;;;;;;;;5143277;27;20224;-68
2022/03/13 06:24:20;;;;;;;3.70;3.40;;;;;;;;;;5154405;27;20232;-68
2022/03/13 06:27:10;;;;;;;3.23;3.03;;;;;;;;;;5155777;27;20212;-69
2022/03/13 06:30:00;;;;;;;3.60;3.40;;;;;;;;;;5166588;27;20293;-68
2022/03/13 06:32:50;;;;;;;3.80;3.50;;;;;;;;;;5150707;27;20624;-68
2022/03/13 06:35:38;;;;;;;3.40;3.20;;;;;;;;;;5147108;27;20256;-68
2022/03/13 06:38:25;;;;;;;3.33;3.13;;;;;;;;;;5160454;27;20301;-68
2022/03/13 06:41:12;;;;;;;2.90;2.70;;;;;;;;;;5154916;27;20374;-68
2022/03/13 06:43:59;;;;;;;3.73;3.40;;;;;;;;;;5161524;27;20617;-66
2022/03/13 06:46:46;;;;;;;3.47;3.20;;;;;;;;;;5154512;27;20771;-68
2022/03/13 06:49:33;;;;;;;3.80;3.50;;;;;;;;;;5163565;27;20208;-68
2022/03/13 06:52:21;;;;;;;3.50;3.17;;;;;;;;;;5163067;27;20281;-68
2022/03/13 06:55:12;;;;;;;3.10;2.90;;;;;;;;;;5159722;27;20216;-68
2022/03/13 06:57:58;;;;;;;3.40;3.20;;;;;;;;;;5155167;27;20224;-68
2022/03/13 07:00:46;;;;;;;3.23;2.97;;;;;;;;;;5154322;27;20302;-67
2022/03/13 07:03:34;;;;;;;3.27;3.07;;;;;;;;;;5160774;27;20216;-68
2022/03/13 07:06:21;;;;;;;3.43;3.23;;;;;;;;;;5151874;27;20238;-68
2022/03/13 07:09:09;;;;;;;3.47;3.27;;;;;;;;;;5156367;27;20689;-68
2022/03/13 07:11:56;;;;;;;4.03;3.20;;;;;;;;;;5153349;27;20683;-69
2022/03/13 07:14:46;;;;;;;3.50;3.30;;;;;;;;;;5149874;27;20867;-68
2022/03/13 07:17:34;;;;;;;3.17;2.97;;;;;;;;;;5156439;27;20202;-69
2022/03/13 07:20:21;;;;;;;3.42;3.13;;;;;;;;;;5157791;27;20209;-65
2022/03/13 07:23:08;;;;;;;3.33;3.13;;;;;;;;;;5155190;27;20224;-67
2022/03/13 07:25:56;;;;;;;3.50;3.30;;;;;;;;;;5156899;27;20203;-66
2022/03/13 07:28:43;;;;;;;3.88;3.45;;;;;;;;;;5155776;27;20199;-66
2022/03/13 07:31:31;;;;;;;3.38;3.17;;;;;;;;;;5159017;27;20206;-67
2022/03/13 07:34:18;;;;;;;3.53;3.25;;;;;;;;;;5154554;27;20231;-67
2022/03/13 07:37:06;;;;;;;3.63;3.33;;;;;;;;;;5160812;27;20212;-67
2022/03/13 07:39:53;;;;;;;3.33;3.13;;;;;;;;;;5157801;27;20212;-66
2022/03/13 07:42:41;;;;;;;3.53;3.22;;;;;;;;;;5148279;27;20263;-67
2022/03/13 07:45:28;;;;;;;3.70;3.45;;;;;;;;;;5158420;27;20211;-66
2022/03/13 07:48:15;;;;;;;3.55;3.25;;;;;;;;;;5156307;27;20204;-67
2022/03/13 07:51:02;;;;;;;3.70;3.50;;;;;;;;;;5161818;27;20298;-66
2022/03/13 07:53:49;;;;;;;3.80;3.50;;;;;;;;;;5155645;27;20223;-66
2022/03/13 07:56:37;;;;;;;3.65;3.45;;;;;;;;;;5153270;27;20684;-68
2022/03/13 07:59:25;;;;;;;3.60;3.40;;;;;;;;;;5163974;27;20581;-68
2022/03/13 08:02:12;;;;;;;3.63;3.33;;;;;;;;;;5153868;27;20220;-69
2022/03/13 08:04:59;;;;;;;3.75;3.53;;;;;;;;;;5151216;27;20462;-69
2022/03/13 08:07:46;;;;;;;3.65;3.45;;;;;;;;;;5149869;27;20298;-68
2022/03/13 08:10:33;;;;;;;3.63;3.42;;;;;;;;;;5152384;27;20298;-68
2022/03/13 08:13:20;;;;;;;3.80;3.50;;;;;;;;;;5157681;27;20291;-68
2022/03/13 08:16:08;;;;;;;3.70;3.40;;;;;;;;;;5152143;27;20206;-68
2022/03/13 08:18:55;;;;;;;3.70;3.50;;;;;;;;;;5151531;27;20238;-68
2022/03/13 08:21:43;;;;;;;3.77;3.43;;;;;;;;;;5163302;27;20677;-68
2022/03/13 08:24:30;;;;;;;4.93;3.50;;;;;;;;;;5143274;27;20211;-68
2022/03/13 08:27:16;;;;;;;4.07;3.70;;;;;;;;;;5152722;27;20246;-69
2022/03/13 08:30:07;;;;;;;3.87;3.57;;;;;;;;;;5154827;27;20256;-68
2022/03/13 08:32:55;;;;;;;4.23;3.50;;;;;;;;;;5157747;27;20690;-68
2022/03/13 08:35:43;;;;;;;3.73;3.43;;;;;;;;;;5158200;27;20247;-68
2022/03/13 08:38:30;;;;;;;4.20;3.70;;;;;;;;;;5158045;27;20211;-69
2022/03/13 08:41:17;;;;;;;4.30;3.90;;;;;;;;;;5158894;27;20224;-69
2022/03/13 08:44:04;;;;;;;3.80;3.50;;;;;;;;;;5120856;27;20290;-69
2022/03/13 08:46:51;;;;;;;3.83;3.53;;;;;;;;;;5118571;27;20315;-69
2022/03/13 08:49:39;;;;;;;3.90;3.60;;;;;;;;;;5116961;27;20243;-68
2022/03/13 08:52:27;;;;;;;4.30;3.90;;;;;;;;;;5119836;27;20306;-68
2022/03/13 08:55:15;;;;;;;3.90;3.60;;;;;;;;;;5120088;27;20683;-68
2022/03/13 08:58:02;;;;;;;4.17;3.87;;;;;;;;;;5117641;27;20751;-68
2022/03/13 09:00:51;;;;;;;4.23;3.90;;;;;;;;;;5117168;27;20670;-69
2022/03/13 09:03:38;;;;;;;4.00;3.70;;;;;;;;;;5123317;27;20237;-68
2022/03/13 09:06:27;;;;;;;4.13;3.80;;;;;;;;;;5119922;28;20306;-67
2022/03/13 09:09:14;;;;;;;4.10;3.80;;;;;;;;;;5119253;28;20211;-68
2022/03/13 09:12:02;;;;;;;4.50;4.10;;;;;;;;;;5114420;28;20202;-68
2022/03/13 09:14:49;;;;;;;4.10;3.80;;;;;;;;;;5110342;28;20595;-68
2022/03/13 09:17:36;;;;;;;5.37;3.87;;;;;;;;;;5115073;28;20611;-68
2022/03/13 09:20:24;;;;;;;4.20;3.90;;;;;;;;;;5122000;28;20544;-68
2022/03/13 09:23:12;;;;;;;4.37;4.07;;;;;;;;;;5115441;28;20256;-68
2022/03/13 09:25:59;;;;;;;4.10;3.80;;;;;;;;;;5111512;28;20259;-68
2022/03/13 09:28:46;;;;;;;4.07;3.77;;;;;;;;;;5119146;28;20229;-68
2022/03/13 09:31:33;;;;;;;4.30;4.00;;;;;;;;;;5116889;28;20243;-69
2022/03/13 09:34:20;;;;;;;4.57;4.17;;;;;;;;;;5116176;28;20199;-69
2022/03/13 09:37:07;;;;;;;4.40;4.10;;;;;;;;;;5113524;28;20637;-69
2022/03/13 09:39:55;;;;;;;4.03;3.73;;;;;;;;;;5115413;28;20255;-68
2022/03/13 09:42:42;;;;;;;4.07;3.77;;;;;;;;;;5139506;27;20237;-68
2022/03/13 09:45:29;;;;;;;3.80;3.50;;;;;;;;;;5150864;27;20824;-69
2022/03/13 09:48:19;;;;;;;4.00;3.70;;;;;;;;;;5156581;27;20272;-68
2022/03/13 09:51:07;;;;;;;4.03;3.73;;;;;;;;;;5157130;27;20691;-68
2022/03/13 09:53:54;;;;;;;4.40;4.10;;;;;;;;;;5159228;27;20707;-69
2022/03/13 09:56:42;;;;;;;4.37;4.00;;;;;;;;;;5160374;27;20316;-68
2022/03/13 09:59:29;;;;;;;4.50;4.20;;;;;;;;;;5152777;27;20306;-68
2022/03/13 10:02:16;;;;;;;4.37;4.07;;;;;;;;;;5166086;27;20268;-68
2022/03/13 10:05:08;;;;;;;4.73;4.33;;;;;;;;;;5155724;27;20201;-68
2022/03/13 10:07:58;;;;;;;6.47;4.20;;;;;;;;;;5152740;27;20280;-68
2022/03/13 10:10:47;;;;;;;4.57;4.17;;;;;;;;;;5154453;27;20197;-68
2022/03/13 10:13:38;;;;;;;4.70;4.30;;;;;;;;;;5151397;27;20210;-68
2022/03/13 10:16:37;;;;;;;4.10;3.80;;;;;;;;;;5160819;27;20205;-77
2022/03/13 10:19:27;;;;;;;4.23;3.93;;;;;;;;;;5148555;27;20206;-72
2022/03/13 10:22:15;;;;;;;3.70;3.40;;;;;;;;;;5161434;27;20636;-72
2022/03/13 10:25:01;;;;;;;4.50;4.17;;;;;;;;;;5160515;27;20915;-72
2022/03/13 10:27:48;;;;;;;4.00;3.70;;;;;;;;;;5150831;27;20752;-72
2022/03/13 10:30:37;;;;;;;4.10;3.80;;;;;;;;;;5154650;27;20681;-72
2022/03/13 10:33:24;;;;;;;4.17;3.87;;;;;;;;;;5155752;27;20211;-73
2022/03/13 10:36:12;;;;;;;4.23;3.90;;;;;;;;;;5157907;27;20213;-72
2022/03/13 10:39:02;;;;;;;4.00;3.70;;;;;;;;;;5151773;27;20238;-72
2022/03/13 10:41:56;;;;;;;3.90;3.60;;;;;;;;;;5159975;27;20261;-72
2022/03/13 10:44:45;;;;;;;5.07;4.20;;;;;;;;;;5155762;27;20197;-71
2022/03/13 10:47:33;;;;;;;3.90;3.60;;;;;;;;;;5148147;27;20213;-68
2022/03/13 10:50:20;;;;;;;4.63;4.10;;;;;;;;;;5149746;27;20661;-73
2022/03/13 10:53:12;;;;;;;4.10;3.70;;;;;;;;;;5159439;27;20301;-72
2022/03/13 10:56:04;;;;;;;4.10;3.70;;;;;;;;;;5164785;27;20667;-72
2022/03/13 10:58:52;;;;;;;4.47;4.07;;;;;;;;;;5156796;27;20273;-72
2022/03/13 11:01:39;;;;;;;4.40;4.00;;;;;;;;;;5159837;27;20204;-75
2022/03/13 11:04:27;;;;;;;4.43;4.13;;;;;;;;;;5150955;27;20246;-72
2022/03/13 11:07:14;;;;;;;4.10;3.80;;;;;;;;;;5151203;27;20679;-72
2022/03/13 11:10:02;;;;;;;3.83;3.53;;;;;;;;;;5154958;27;20205;-67
2022/03/13 11:12:51;;;;;;;3.70;3.40;;;;;;;;;;5155441;27;20219;-68
2022/03/13 11:15:41;;;;;;;4.23;3.77;;;;;;;;;;5148517;27;20208;-68
2022/03/13 11:18:32;;;;;;;4.80;3.80;;;;;;;;;;5152497;27;20210;-67
2022/03/13 11:21:20;;;;;;;4.03;3.63;;;;;;;;;;5161380;27;20727;-68
2022/03/13 11:24:07;;;;;;;3.60;3.40;;;;;;;;;;5157225;27;20229;-68
2022/03/13 11:26:54;;;;;;;5.00;3.43;;;;;;;;;;5160177;27;20213;-68
2022/03/13 11:29:43;;;;;;;3.37;3.10;;;;;;;;;;5157234;27;20299;-67
2022/03/13 11:32:36;;;;;;;3.50;3.20;;;;;;;;;;5154215;27;20267;-68
2022/03/13 11:35:27;;;;;;;3.57;3.27;;;;;;;;;;5160643;27;20614;-67
2022/03/13 11:38:22;;;;;;;3.20;3.00;;;;;;;;;;5153784;27;20679;-67
2022/03/13 11:41:12;;;;;;;3.57;3.30;;;;;;;;;;5155950;27;20214;-68
2022/03/13 11:44:03;;;;;;;3.87;3.57;;;;;;;;;;5157364;27;20595;-67
2022/03/13 11:46:51;;;;;;;3.43;3.13;;;;;;;;;;5157057;27;20302;-67
2022/03/13 11:49:38;;;;;;;3.60;3.30;;;;;;;;;;5156734;27;20293;-67
2022/03/13 11:52:29;;;;;;;3.20;3.00;;;;;;;;;;5155437;27;20221;-67
2022/03/13 11:55:17;;;;;;;3.63;3.33;;;;;;;;;;5158634;27;20202;-68
2022/03/13 11:58:04;;;;;;;3.70;3.30;;;;;;;;;;5151014;27;20272;-68
2022/03/13 12:01:06;;;;;;;3.43;3.13;;;;;;;;;;5151490;27;20210;-67
2022/03/13 12:04:28;;;;;;;3.80;3.40;;;;;;;;;;5156744;27;20263;-68
2022/03/13 12:07:27;;;;;;;3.33;3.13;;;;;;;;;;5162752;27;20203;-67
2022/03/13 12:10:32;;;;;;;3.30;3.00;;;;;;;;;;5154088;27;20203;-67
2022/03/13 12:13:20;;;;;;;3.30;3.00;;;;;;;;;;5156397;27;20213;-67
2022/03/13 12:16:17;;;;;;;3.10;2.90;;;;;;;;;;5153727;27;20260;-67
2022/03/13 12:19:05;;;;;;;3.30;3.10;;;;;;;;;;5154835;27;20207;-67
2022/03/13 12:21:52;;;;;;;3.33;3.13;;;;;;;;;;5157719;27;20262;-67
2022/03/13 12:24:39;;;;;;;2.97;2.77;;;;;;;;;;5156791;27;20277;-67
2022/03/13 12:27:28;;;;;;;2.90;2.70;;;;;;;;;;5161918;27;20246;-67
2022/03/13 12:30:23;;;;;;;3.90;3.13;;;;;;;;;;5155760;27;20209;-67
2022/03/13 12:33:10;;;;;;;4.13;2.70;;;;;;;;;;5155842;27;20276;-68
2022/03/13 12:35:57;;;;;;;3.27;3.07;;;;;;;;;;5158896;27;20214;-68
2022/03/13 12:38:49;;;;;;;3.23;2.93;;;;;;;;;;5158692;27;20211;-67
2022/03/13 12:41:36;;;;;;;3.53;2.80;;;;;;;;;;5155448;27;20281;-68
2022/03/13 12:44:24;;;;;;;2.93;2.73;;;;;;;;;;5154812;27;20228;-68
2022/03/13 12:47:11;;;;;;;3.03;2.83;;;;;;;;;;5156671;27;20347;-68
2022/03/13 12:50:00;;;;;;;3.07;2.87;;;;;;;;;;5146150;27;20207;-67
2022/03/13 12:52:56;;;;;;;2.97;2.77;;;;;;;;;;5163384;27;20287;-68
2022/03/13 12:55:51;;;;;;;3.13;2.93;;;;;;;;;;5158738;27;20286;-69
2022/03/13 12:58:44;;;;;;;3.60;2.60;;;;;;;;;;5146795;27;20205;-68
2022/03/13 13:01:33;;;;;;;2.97;2.67;;;;;;;;;;5158893;27;20334;-68
2022/03/13 13:04:20;;;;;;;2.97;2.77;;;;;;;;;;5152551;27;20319;-69
2022/03/13 13:07:09;;;;;;;2.90;2.70;;;;;;;;;;5152930;27;20210;-67
2022/03/13 13:09:57;;;;;;;2.73;2.53;;;;;;;;;;5143274;27;20237;-68
2022/03/13 13:12:44;;;;;;;2.97;2.77;;;;;;;;;;5152989;27;20243;-68
2022/03/13 13:15:32;;;;;;;2.60;2.50;;;;;;;;;;5148836;27;20296;-69
2022/03/13 13:18:20;;;;;;;3.33;2.83;;;;;;;;;;5163525;27;20217;-69
2022/03/13 13:21:10;;;;;;;3.03;2.83;;;;;;;;;;5153647;27;20687;-68
2022/03/13 13:23:57;;;;;;;3.13;2.83;;;;;;;;;;5153239;27;20253;-67
2022/03/13 13:26:44;;;;;;;3.50;3.20;;;;;;;;;;5153013;27;20206;-67
2022/03/13 13:29:32;;;;;;;2.90;2.70;;;;;;;;;;5151743;27;20200;-67
2022/03/13 13:32:21;;;;;;;2.90;2.70;;;;;;;;;;5156895;27;20281;-67
2022/03/13 13:35:13;;;;;;;2.63;2.43;;;;;;;;;;5162999;27;20205;-68
2022/03/13 13:38:14;;;;;;;3.20;2.90;;;;;;;;;;5164899;27;20218;-68
2022/03/13 13:41:03;;;;;;;3.57;3.27;;;;;;;;;;5166386;27;20214;-67
2022/03/13 13:43:50;;;;;;;2.97;2.77;;;;;;;;;;5160649;27;20240;-67
2022/03/13 13:46:38;;;;;;;3.40;2.77;;;;;;;;;;5166997;27;20204;-67
2022/03/13 13:49:26;;;;;;;2.93;2.73;;;;;;;;;;5161903;27;20288;-66
2022/03/13 13:52:14;;;;;;;2.67;2.47;;;;;;;;;;5152978;27;20238;-68
2022/03/13 13:55:20;;;;;;;3.07;2.87;;;;;;;;;;5160372;27;20680;-68
2022/03/13 13:58:20;;;;;;;3.10;2.90;;;;;;;;;;5152293;27;20215;-67
2022/03/13 14:01:24;;;;;;;2.80;2.60;;;;;;;;;;5154220;27;20209;-68
2022/03/13 14:04:12;;;;;;;2.70;2.50;;;;;;;;;;5164139;27;20349;-70
2022/03/13 14:06:59;;;;;;;2.90;2.70;;;;;;;;;;5155638;27;20680;-69
2022/03/13 14:09:47;;;;;;;3.07;2.87;;;;;;;;;;5161663;27;20205;-68
2022/03/13 14:12:34;;;;;;;3.00;2.80;;;;;;;;;;5154351;27;20246;-69
2022/03/13 14:15:21;;;;;;;3.40;3.10;;;;;;;;;;5155845;27;20689;-69
2022/03/13 14:18:08;;;;;;;2.97;2.77;;;;;;;;;;5163947;27;20291;-69
2022/03/13 14:20:55;;;;;;;3.23;2.60;;;;;;;;;;5150088;27;20661;-69
2022/03/13 14:23:42;;;;;;;2.90;2.70;;;;;;;;;;5152877;27;20255;-69
2022/03/13 14:26:31;;;;;;;3.10;2.90;;;;;;;;;;5157174;27;20287;-69
2022/03/13 14:29:20;;;;;;;6.00;2.60;;;;;;;;;;5161235;27;20248;-69
2022/03/13 14:32:08;;;;;;;3.00;2.80;;;;;;;;;;5162284;27;20215;-68
2022/03/13 14:34:55;;;;;;;2.77;2.57;;;;;;;;;;5156473;27;20200;-69
2022/03/13 14:37:42;;;;;;;2.57;2.40;;;;;;;;;;5159938;27;20554;-68
2022/03/13 14:40:28;;;;;;;3.00;2.80;;;;;;;;;;5156298;27;20220;-69
2022/03/13 14:43:21;;;;;;;2.87;2.67;;;;;;;;;;5149517;27;20227;-69
2022/03/13 14:46:09;;;;;;;3.10;2.90;;;;;;;;;;5160819;27;20560;-69
2022/03/13 14:48:56;;;;;;;3.10;2.90;;;;;;;;;;5164429;27;20215;-69
2022/03/13 14:51:43;;;;;;;3.10;2.80;;;;;;;;;;5156098;27;20308;-69
2022/03/13 14:54:30;;;;;;;2.70;2.60;;;;;;;;;;5162154;27;20206;-69
2022/03/13 14:57:18;;;;;;;2.90;2.70;;;;;;;;;;5150931;27;20211;-68
2022/03/13 15:00:10;;;;;;;2.97;2.77;;;;;;;;;;5159159;27;20297;-69
2022/03/13 15:02:57;;;;;;;2.77;2.57;;;;;;;;;;5143580;27;20678;-68
2022/03/13 15:05:46;;;;;;;2.93;2.73;;;;;;;;;;5163102;27;20211;-68
2022/03/13 15:08:33;;;;;;;2.70;2.60;;;;;;;;;;5152998;27;20222;-68
2022/03/13 15:11:20;;;;;;;2.80;2.60;;;;;;;;;;5159296;27;20195;-67
2022/03/13 15:14:08;;;;;;;2.77;2.57;;;;;;;;;;5159627;27;20234;-68
2022/03/13 15:16:57;;;;;;;2.90;2.70;;;;;;;;;;5153359;27;20304;-68
2022/03/13 15:19:43;;;;;;;2.67;2.47;;;;;;;;;;5159128;27;20217;-68
2022/03/13 15:22:31;;;;;;;2.73;2.53;;;;;;;;;;5152844;27;20210;-68
2022/03/13 15:25:19;;;;;;;2.77;2.57;;;;;;;;;;5157088;27;20591;-69
2022/03/13 15:28:06;;;;;;;2.90;2.70;;;;;;;;;;5159405;27;20676;-69
2022/03/13 15:30:53;;;;;;;2.60;2.50;;;;;;;;;;5161131;27;20216;-69
2022/03/13 15:33:41;;;;;;;4.13;2.80;;;;;;;;;;5162528;27;20201;-68
2022/03/13 15:36:28;;;;;;;2.97;2.77;;;;;;;;;;5148186;27;20237;-68
2022/03/13 15:39:15;;;;;;;3.00;2.80;;;;;;;;;;5153843;27;20695;-68
2022/03/13 15:42:02;;;;;;;2.97;2.77;;;;;;;;;;5156595;27;20230;-70
2022/03/13 15:44:49;;;;;;;3.20;2.90;;;;;;;;;;5160178;27;20370;-68
2022/03/13 15:47:36;;;;;;;3.00;2.80;;;;;;;;;;5148540;27;20297;-69
2022/03/13 15:50:25;;;;;;;3.17;2.87;;;;;;;;;;5159505;27;20241;-69
2022/03/13 15:53:12;;;;;;;2.80;2.60;;;;;;;;;;5158858;27;20229;-68
2022/03/13 15:55:59;;;;;;;3.20;2.90;;;;;;;;;;5159632;27;20653;-68
2022/03/13 15:58:46;;;;;;;3.00;2.80;;;;;;;;;;5158753;27;20284;-69
2022/03/13 16:01:34;;;;;;;3.10;2.90;;;;;;;;;;5150217;27;20209;-69
2022/03/13 16:04:21;;;;;;;3.27;2.97;;;;;;;;;;5157414;27;20232;-69
2022/03/13 16:07:09;;;;;;;3.00;2.80;;;;;;;;;;5159337;27;20576;-68
2022/03/13 16:09:56;;;;;;;2.80;2.60;;;;;;;;;;5159788;27;20203;-69
2022/03/13 16:12:43;;;;;;;3.10;2.90;;;;;;;;;;5161267;27;20251;-69
2022/03/13 16:15:30;;;;;;;3.17;2.97;;;;;;;;;;5143061;27;20199;-68
2022/03/13 16:18:17;;;;;;;3.07;2.80;;;;;;;;;;5158164;27;20580;-69
2022/03/13 16:21:04;;;;;;;2.60;2.40;;;;;;;;;;5155321;27;20535;-68
2022/03/13 16:23:53;;;;;;;2.63;2.53;;;;;;;;;;5157142;27;20225;-68
2022/03/13 16:26:40;;;;;;;3.00;2.80;;;;;;;;;;5155614;27;20638;-68
2022/03/13 16:29:27;;;;;;;2.90;2.70;;;;;;;;;;5158625;27;20372;-69
2022/03/13 16:32:16;;;;;;;3.07;2.67;;;;;;;;;;5159294;27;20200;-68
2022/03/13 16:35:04;;;;;;;2.80;2.60;;;;;;;;;;5149921;27;20793;-69
2022/03/13 16:37:51;;;;;;;3.17;2.87;;;;;;;;;;5160437;27;20675;-68
2022/03/13 16:40:40;;;;;;;3.03;2.83;;;;;;;;;;5159412;27;20285;-68
2022/03/13 16:43:28;;;;;;;2.73;2.57;;;;;;;;;;5153346;27;20236;-68
2022/03/13 16:46:15;;;;;;;2.90;2.70;;;;;;;;;;5151280;27;20645;-69
2022/03/13 16:49:02;;;;;;;2.77;2.57;;;;;;;;;;5153337;27;20236;-68